Time;durP1;ratioP1;P1;durP2;ratioP2;P2;SDS_P1;SDS_P2;PMS_P1;PMS_P2;Temp;Humidity;BMP_temperature;BMP_pressure;BME280_temperature;BME280_humidity;BME280_pressure;Samples;Min_cycle;Max_cycle;Signal;HPM_P1;HPM_P2
2022/10/12 00:19:28;;;;;;;;;;;;;;;;;;;;;
2022/10/12 00:22:17;;;;;;;11.10;5.80;;;11.80;61.00;;;;;;5004299;28;20206;-96
2022/10/12 00:25:35;;;;;;;16.67;7.57;;;11.70;60.90;;;;;;5014456;28;20230;-96
2022/10/12 00:30:58;;;;;;;12.53;6.50;;;11.70;61.00;;;;;;5117576;23;20263;-96
2022/10/12 00:36:59;;;;;;;15.33;7.30;;;11.60;61.30;;;;;;5026408;23;20396;-96
2022/10/12 00:39:31;;;;;;;14.83;7.07;;;11.60;61.40;;;;;;4993087;28;20199;-96
2022/10/12 00:42:17;;;;;;;14.87;7.00;;;11.60;61.20;;;;;;4986466;28;20206;-96
2022/10/12 00:48:30;;;;;;;13.37;7.03;;;11.50;61.50;;;;;;4993403;28;20240;-96
2022/10/12 01:03:42;;;;;;;13.57;6.67;;;11.40;62.10;;;;;;5297472;23;20242;-96
2022/10/12 01:06:14;;;;;;;8.93;5.20;;;11.40;61.80;;;;;;4992354;28;20207;-96
2022/10/12 01:09:14;;;;;;;17.23;7.50;;;11.30;61.50;;;;;;4988930;28;20235;-96
2022/10/12 01:18:19;;;;;;;;;;;;;;;;;;;;;
2022/10/12 01:21:29;;;;;;;17.67;7.80;;;11.30;62.00;;;;;;4991765;28;20198;-96
2022/10/12 01:24:38;;;;;;;19.70;7.97;;;11.30;62.10;;;;;;4994319;28;20195;-96
2022/10/12 01:30:41;;;;;;;11.53;6.03;;;11.20;62.00;;;;;;4993809;28;20298;-96
2022/10/12 01:33:32;;;;;;;15.20;6.13;;;11.20;62.00;;;;;;4994025;28;20294;-96
2022/10/12 01:46:42;;;;;;;15.53;6.53;;;11.00;62.00;;;;;;4986473;23;20248;-96
2022/10/12 01:55:45;;;;;;;12.00;6.10;;;10.90;61.90;;;;;;4996755;23;20230;-96
2022/10/12 02:01:52;;;;;;;15.07;6.77;;;10.80;62.00;;;;;;4990741;28;21898;-96
2022/10/12 02:04:50;;;;;;;12.63;5.93;;;10.90;62.30;;;;;;4990089;28;20199;-96
2022/10/12 02:10:49;;;;;;;12.43;5.87;;;10.80;62.30;;;;;;4998495;28;20184;-96
2022/10/12 02:16:50;;;;;;;7.93;5.00;;;10.70;62.30;;;;;;4992512;28;20179;-96
2022/10/12 02:19:36;;;;;;;9.70;5.70;;;10.70;62.20;;;;;;5000603;23;20293;-96
2022/10/12 02:22:14;;;;;;;14.13;6.37;;;10.70;62.20;;;;;;4987949;28;20321;-96
2022/10/12 02:31:32;;;;;;;9.67;5.43;;;10.60;62.20;;;;;;5247874;23;20245;-96
2022/10/12 02:43:39;;;;;;;7.10;4.23;;;10.50;62.70;;;;;;5013149;23;20610;-96
2022/10/12 02:46:45;;;;;;;14.23;6.87;;;10.50;62.40;;;;;;4996003;28;20202;-96
2022/10/12 02:49:18;;;;;;;17.03;6.37;;;10.40;62.90;;;;;;5004825;28;20235;-96
2022/10/12 02:51:48;;;;;;;9.77;5.60;;;10.40;62.40;;;;;;4995599;28;20233;-96
2022/10/12 02:54:16;;;;;;;15.00;6.93;;;10.40;62.50;;;;;;5198073;23;20229;-96
2022/10/12 03:00:19;;;;;;;11.70;6.03;;;10.40;62.90;;;;;;5282571;23;20229;-96
2022/10/12 03:02:51;;;;;;;11.37;6.43;;;10.40;62.50;;;;;;4996871;28;20225;-96
2022/10/12 03:05:43;;;;;;;11.27;7.67;;;10.30;62.50;;;;;;4994763;28;20203;-96
2022/10/12 03:08:11;;;;;;;12.27;6.40;;;10.30;63.00;;;;;;4990820;28;20252;-96
2022/10/12 03:11:09;;;;;;;6.53;5.03;;;10.30;62.70;;;;;;4993714;28;20241;-96
2022/10/12 03:13:46;;;;;;;8.23;5.57;;;10.30;63.00;;;;;;4992448;28;20202;-96
2022/10/12 03:16:24;;;;;;;23.53;8.90;;;10.20;62.70;;;;;;4992985;28;20198;-96
2022/10/12 03:18:59;;;;;;;12.10;7.27;;;10.20;62.70;;;;;;5002055;28;20206;-96
2022/10/12 03:21:42;;;;;;;28.83;10.03;;;10.20;62.70;;;;;;5004452;28;20187;-96
2022/10/12 03:24:25;;;;;;;12.90;6.50;;;10.20;62.70;;;;;;5007343;28;20190;-96
2022/10/12 03:27:07;;;;;;;10.97;6.30;;;10.20;62.90;;;;;;5007936;28;20382;-96
2022/10/12 03:29:45;;;;;;;7.73;5.87;;;10.20;62.80;;;;;;4996590;28;20230;-96
2022/10/12 03:32:58;;;;;;;13.40;6.13;;;10.10;62.80;;;;;;4992802;28;20210;-96
2022/10/12 03:35:49;;;;;;;15.27;6.13;;;10.10;63.20;;;;;;4994177;28;20205;-96
2022/10/12 05:15:23;;;;;;;7.50;4.70;;;9.30;64.40;;;;;;5006129;28;20222;-96
2022/10/12 05:17:51;;;;;;;16.30;5.83;;;9.30;64.60;;;;;;5015012;28;20269;-96
2022/10/12 06:08:51;;;;;;;14.70;5.00;;;8.80;64.90;;;;;;4991758;28;20231;-96
2022/10/12 06:11:36;;;;;;;11.40;4.93;;;8.80;64.90;;;;;;4991725;28;20222;-96
2022/10/12 06:40:18;;;;;;;14.73;6.33;;;8.60;66.00;;;;;;4965393;29;20269;-96
2022/10/12 07:05:19;;;;;;;;;;;;;;;;;;;;;
2022/10/12 07:11:50;;;;;;;11.77;5.97;;;8.80;67.50;;;;;;4972937;28;20210;-96
2022/10/12 07:17:36;;;;;;;9.07;5.60;;;8.90;67.60;;;;;;5009907;23;20328;-93
2022/10/12 07:20:43;;;;;;;9.90;5.67;;;8.90;67.10;;;;;;4988780;28;20648;-94
2022/10/12 07:24:06;;;;;;;13.87;6.47;;;8.90;67.40;;;;;;4986792;28;20269;-93
2022/10/12 07:26:33;;;;;;;12.07;6.17;;;9.00;67.90;;;;;;4933908;29;20212;-93
2022/10/12 07:29:29;;;;;;;15.53;6.23;;;9.00;67.50;;;;;;4971690;28;20263;-93
2022/10/12 07:32:37;;;;;;;11.20;6.00;;;9.10;68.70;;;;;;4981774;28;20214;-94
2022/10/12 07:35:09;;;;;;;9.40;5.90;;;9.10;68.70;;;;;;4981898;28;20210;-94
2022/10/12 07:38:02;;;;;;;12.60;6.63;;;9.20;68.20;;;;;;4986363;28;20206;-94
2022/10/12 07:40:58;;;;;;;14.97;6.93;;;9.20;68.90;;;;;;4989341;28;20268;-94
2022/10/12 07:43:29;;;;;;;15.03;7.43;;;9.20;69.20;;;;;;4995765;28;20206;-93
2022/10/12 07:45:57;;;;;;;11.30;6.83;;;9.30;68.80;;;;;;4985398;28;20254;-93
2022/10/12 07:48:58;;;;;;;14.07;7.63;;;9.40;69.00;;;;;;4976026;28;20207;-93
2022/10/12 07:54:13;;;;;;;18.27;8.43;;;9.50;69.60;;;;;;4988446;28;20276;-93
2022/10/12 07:57:01;;;;;;;17.60;8.70;;;9.60;70.00;;;;;;4975337;28;20234;-92
2022/10/12 08:00:01;;;;;;;18.40;10.10;;;9.70;71.20;;;;;;4982199;28;20206;-91
2022/10/12 08:02:30;;;;;;;28.27;11.73;;;9.80;71.60;;;;;;4982057;28;20183;-93
2022/10/12 08:04:58;;;;;;;15.60;9.37;;;10.00;71.20;;;;;;4983938;28;20207;-93
2022/10/12 08:07:27;;;;;;;19.13;10.10;;;10.10;71.40;;;;;;4975823;28;20187;-92
2022/10/12 08:09:54;;;;;;;19.40;9.87;;;10.40;72.10;;;;;;4976535;28;20297;-91
2022/10/12 08:15:11;;;;;;;20.17;10.40;;;10.70;71.80;;;;;;4956860;28;20303;-94
2022/10/12 08:18:15;;;;;;;17.10;9.27;;;11.00;71.90;;;;;;4971864;28;20205;-92
2022/10/12 08:20:50;;;;;;;15.47;8.90;;;11.20;72.30;;;;;;4973842;28;20255;-96
2022/10/12 08:26:40;;;;;;;19.43;9.60;;;11.60;72.00;;;;;;4980677;28;20255;-96
2022/10/12 08:29:08;;;;;;;17.70;9.67;;;11.90;72.20;;;;;;4983065;28;20237;-96
2022/10/12 08:31:37;;;;;;;17.17;8.73;;;12.00;71.60;;;;;;4983609;28;20202;-95
2022/10/12 08:34:07;;;;;;;19.27;9.90;;;12.20;71.90;;;;;;4980427;28;20203;-95
2022/10/12 08:36:40;;;;;;;20.07;10.23;;;12.50;71.70;;;;;;4977894;28;20295;-95
2022/10/12 08:39:39;;;;;;;19.73;12.17;;;12.60;71.70;;;;;;4968326;28;20217;-96
2022/10/12 08:42:21;;;;;;;23.97;12.53;;;12.90;72.10;;;;;;4967966;28;20218;-96
2022/10/12 08:45:17;;;;;;;21.53;11.50;;;13.00;71.80;;;;;;4968927;28;20214;-96
2022/10/12 08:47:47;;;;;;;26.20;10.87;;;13.30;72.10;;;;;;4966994;28;20203;-96
2022/10/12 08:53:49;;;;;;;15.80;9.50;;;13.70;71.50;;;;;;4961562;28;20213;-96
2022/10/12 08:59:04;;;;;;;18.20;9.77;;;14.20;70.40;;;;;;4979005;28;20593;-96
2022/10/12 09:01:37;;;;;;;13.93;9.33;;;14.30;69.70;;;;;;5002082;28;20213;-95
2022/10/12 09:21:14;;;;;;;11.07;7.43;;;15.00;68.40;;;;;;4946865;29;20206;-96
2022/10/12 09:24:38;;;;;;;18.50;9.60;;;15.10;68.10;;;;;;4947943;23;20227;-96
2022/10/12 09:33:29;;;;;;;17.73;9.93;;;15.30;67.20;;;;;;4987426;28;20296;-96
2022/10/12 09:36:15;;;;;;;19.40;10.17;;;15.40;67.30;;;;;;4989856;28;20633;-96
2022/10/12 09:41:56;;;;;;;15.83;9.83;;;15.50;67.60;;;;;;5042945;23;20253;-90
2022/10/12 09:47:26;;;;;;;19.73;10.30;;;15.60;68.20;;;;;;4992936;23;20239;-96
2022/10/12 09:49:57;;;;;;;19.17;10.40;;;15.70;68.20;;;;;;5004780;28;20339;-96
2022/10/12 09:52:43;;;;;;;19.63;9.80;;;15.80;68.00;;;;;;5008751;28;20299;-96
2022/10/12 09:58:38;;;;;;;15.93;10.20;;;16.20;68.90;;;;;;5013549;23;20233;-96
2022/10/12 10:22:07;;;;;;;18.77;9.20;;;18.40;65.90;;;;;;5067079;23;20230;-96
2022/10/12 10:32:40;;;;;;;15.37;8.30;;;19.50;64.70;;;;;;5066386;23;20263;-96
2022/10/12 10:35:39;;;;;;;15.27;8.70;;;19.80;63.00;;;;;;4986871;28;20237;-96
2022/10/12 10:39:03;;;;;;;13.60;7.27;;;20.20;62.30;;;;;;4966190;28;20215;-96
2022/10/12 10:41:38;;;;;;;15.97;8.00;;;20.40;61.00;;;;;;4978368;28;20672;-96
2022/10/12 10:44:26;;;;;;;11.07;6.63;;;20.70;60.70;;;;;;4981523;28;20214;-96
2022/10/12 10:52:40;;;;;;;13.00;7.10;;;21.10;59.00;;;;;;4995694;28;20207;-96
2022/10/12 10:55:32;;;;;;;11.80;6.70;;;21.20;58.90;;;;;;4999515;28;20212;-96
2022/10/12 10:58:09;;;;;;;15.53;8.50;;;21.20;58.00;;;;;;5052369;23;20229;-96
2022/10/12 11:00:52;;;;;;;15.37;8.53;;;21.30;58.00;;;;;;4989662;28;20221;-96
2022/10/12 11:03:25;;;;;;;12.90;7.50;;;21.20;57.30;;;;;;5027323;23;20981;-96
2022/10/12 11:09:20;;;;;;;19.30;7.87;;;21.10;56.50;;;;;;5001621;28;20189;-96
2022/10/12 11:23:46;;;;;;;15.70;8.43;;;20.80;56.40;;;;;;5026544;23;20228;-95
2022/10/12 11:44:03;;;;;;;15.30;7.67;;;21.40;56.80;;;;;;5000055;23;20249;-95
2022/10/12 11:56:30;;;;;;;15.00;7.37;;;21.70;55.40;;;;;;5003281;23;20218;-96
2022/10/12 12:17:26;;;;;;;14.43;6.60;;;21.40;54.40;;;;;;4962999;29;20267;-96
2022/10/12 12:19:54;;;;;;;20.03;8.40;;;21.40;54.60;;;;;;4946943;29;20226;-92
2022/10/12 12:29:13;;;;;;;15.27;7.07;;;21.30;54.30;;;;;;5033407;23;20241;-95
2022/10/12 12:32:00;;;;;;;11.97;6.20;;;21.30;54.10;;;;;;5011597;28;20237;-96
2022/10/12 12:45:24;;;;;;;10.97;5.80;;;21.30;53.40;;;;;;5056165;23;20244;-96
2022/10/12 12:47:53;;;;;;;15.07;6.57;;;21.30;53.70;;;;;;5000088;28;20202;-96
2022/10/12 12:50:37;;;;;;;14.23;6.53;;;21.30;54.40;;;;;;4992179;28;20222;-96
2022/10/12 12:56:23;;;;;;;10.87;5.17;;;21.30;53.50;;;;;;4986277;28;20202;-96
2022/10/12 12:59:41;;;;;;;18.13;7.23;;;21.30;53.70;;;;;;4998983;28;20225;-96
2022/10/12 13:02:57;;;;;;;15.17;7.53;;;21.30;53.30;;;;;;4972476;28;20234;-95
2022/10/12 13:06:01;;;;;;;18.53;8.43;;;21.30;53.70;;;;;;4992975;28;20992;-91
2022/10/12 13:11:43;;;;;;;11.33;5.53;;;21.30;53.50;;;;;;4983261;28;20297;-96
2022/10/12 13:18:13;;;;;;;14.43;6.70;;;21.10;53.60;;;;;;4989872;28;20208;-95
2022/10/12 13:21:17;;;;;;;12.80;5.27;;;21.10;53.50;;;;;;4999946;28;20234;-95
2022/10/12 13:23:53;;;;;;;17.53;6.80;;;21.10;53.60;;;;;;4996353;28;20210;-94
2022/10/12 13:26:27;;;;;;;15.97;6.17;;;21.20;53.60;;;;;;4993454;28;20200;-95
2022/10/12 13:28:56;;;;;;;14.67;6.23;;;21.20;53.40;;;;;;4995332;28;20209;-95
2022/10/12 13:31:32;;;;;;;18.30;7.23;;;21.20;53.80;;;;;;4996417;28;20237;-94
2022/10/12 13:34:28;;;;;;;20.13;7.27;;;21.20;53.20;;;;;;5002904;28;20969;-95
2022/10/12 13:37:02;;;;;;;9.33;4.27;;;21.20;52.80;;;;;;5007863;28;20206;-94
2022/10/12 13:39:30;;;;;;;12.60;5.73;;;21.20;53.00;;;;;;5012688;28;20214;-95
2022/10/12 13:42:00;;;;;;;8.83;4.10;;;21.20;53.20;;;;;;5005729;28;20210;-94
2022/10/12 13:44:29;;;;;;;8.37;3.90;;;21.20;53.00;;;;;;5000002;28;20265;-94
2022/10/12 13:47:21;;;;;;;10.70;4.10;;;21.10;53.10;;;;;;5006136;28;20656;-94
2022/10/12 13:49:49;;;;;;;11.00;4.30;;;21.10;52.60;;;;;;5003236;28;20198;-95
2022/10/12 13:55:57;;;;;;;9.67;3.73;;;21.00;52.30;;;;;;4974585;28;20210;-96
2022/10/12 14:01:28;;;;;;;10.77;3.77;;;20.90;52.30;;;;;;4997178;28;20209;-92
2022/10/12 14:10:32;;;;;;;10.50;4.20;;;20.80;52.70;;;;;;4938096;28;20231;-96
2022/10/12 14:13:23;;;;;;;20.10;5.77;;;20.70;52.70;;;;;;5005618;28;20218;-95
2022/10/12 14:15:51;;;;;;;9.63;4.27;;;20.70;52.50;;;;;;4992402;28;20230;-96
2022/10/12 14:18:39;;;;;;;10.03;4.27;;;20.60;52.90;;;;;;4979938;28;20203;-96
2022/10/12 14:21:13;;;;;;;10.37;4.10;;;20.60;52.60;;;;;;4978890;28;20234;-96
2022/10/12 14:23:48;;;;;;;10.67;4.27;;;20.50;52.60;;;;;;4980817;28;20269;-96
2022/10/12 14:26:29;;;;;;;11.80;4.33;;;20.50;52.50;;;;;;4996990;28;20205;-96
2022/10/12 14:35:31;;;;;;;13.27;4.83;;;20.40;52.60;;;;;;4991646;28;20691;-96
2022/10/12 14:41:35;;;;;;;10.97;4.43;;;20.40;53.00;;;;;;4987978;28;20210;-96
2022/10/12 14:44:14;;;;;;;14.67;5.67;;;20.50;53.10;;;;;;4998608;28;20303;-96
2022/10/12 15:00:19;;;;;;;12.07;5.33;;;20.50;52.90;;;;;;4997577;28;20206;-96
2022/10/12 15:02:55;;;;;;;8.43;4.53;;;20.50;52.90;;;;;;4976682;28;20269;-96
2022/10/12 15:06:18;;;;;;;9.90;4.27;;;20.50;53.20;;;;;;4992773;28;20213;-96
2022/10/12 15:08:51;;;;;;;9.07;4.90;;;20.40;53.00;;;;;;4993880;28;20543;-96
2022/10/12 15:11:25;;;;;;;6.73;3.63;;;20.40;53.40;;;;;;4990990;28;20241;-96
2022/10/12 15:13:58;;;;;;;11.50;4.60;;;20.40;53.30;;;;;;4990167;28;20648;-96
2022/10/12 15:16:33;;;;;;;12.00;4.17;;;20.40;53.40;;;;;;4990698;28;20214;-96
2022/10/12 15:19:02;;;;;;;12.87;4.87;;;20.40;53.60;;;;;;4996842;28;20604;-94
2022/10/12 15:21:30;;;;;;;10.03;4.33;;;20.40;53.50;;;;;;4996033;28;20207;-96
2022/10/12 15:23:59;;;;;;;9.40;3.90;;;20.40;53.50;;;;;;4997192;28;20213;-96
2022/10/12 15:26:28;;;;;;;10.40;4.30;;;20.30;53.30;;;;;;4995630;28;20256;-96
2022/10/12 15:32:12;;;;;;;10.60;4.20;;;20.30;53.30;;;;;;4997489;28;20245;-96
2022/10/12 15:37:30;;;;;;;11.43;4.53;;;20.20;53.50;;;;;;4998382;28;20275;-96
2022/10/12 15:40:19;;;;;;;8.57;3.97;;;20.20;53.60;;;;;;4998863;28;20574;-96
2022/10/12 15:42:50;;;;;;;7.03;3.37;;;20.10;53.70;;;;;;4998732;28;20232;-96
2022/10/12 15:45:26;;;;;;;12.47;5.30;;;20.10;53.80;;;;;;4990022;28;20199;-93
2022/10/12 15:50:52;;;;;;;9.87;4.90;;;20.10;53.90;;;;;;4983200;28;20205;-96
2022/10/12 15:53:32;;;;;;;15.90;6.13;;;20.00;53.80;;;;;;4982046;28;20210;-96
2022/10/12 15:56:00;;;;;;;9.23;4.40;;;20.00;53.90;;;;;;4962760;28;20289;-92
2022/10/12 15:58:28;;;;;;;12.57;4.57;;;20.00;54.10;;;;;;4975913;28;20241;-95
2022/10/12 16:01:05;;;;;;;9.50;5.03;;;19.90;54.10;;;;;;4973658;28;20648;-96
2022/10/12 16:03:32;;;;;;;10.17;4.63;;;19.90;54.10;;;;;;4967483;28;20673;-96
2022/10/12 16:06:05;;;;;;;10.23;4.57;;;19.90;54.20;;;;;;4959776;28;20633;-96
2022/10/12 16:08:48;;;;;;;9.63;4.57;;;19.90;54.30;;;;;;4963243;28;20203;-96
2022/10/12 16:11:18;;;;;;;8.03;4.13;;;19.90;54.40;;;;;;4958262;28;20444;-96
2022/10/12 16:14:23;;;;;;;11.27;5.13;;;19.90;54.60;;;;;;4972423;28;20191;-96
2022/10/12 16:16:50;;;;;;;11.57;5.20;;;19.90;54.70;;;;;;4979902;28;20214;-96
2022/10/12 16:19:19;;;;;;;16.33;6.17;;;19.80;54.60;;;;;;4975932;28;20206;-96
2022/10/12 16:21:49;;;;;;;10.73;4.63;;;19.90;54.70;;;;;;4990415;28;20210;-96
2022/10/12 16:32:50;;;;;;;11.00;4.80;;;19.90;55.30;;;;;;4974089;28;20795;-95
2022/10/12 16:35:21;;;;;;;7.07;3.97;;;19.80;55.40;;;;;;4975848;28;20203;-93
2022/10/12 16:40:42;;;;;;;9.97;5.33;;;19.80;55.40;;;;;;4968998;28;20207;-92
2022/10/12 16:49:04;;;;;;;7.73;4.47;;;19.80;55.50;;;;;;4960806;28;20699;-94
2022/10/12 17:00:41;;;;;;;9.77;4.90;;;19.60;56.20;;;;;;4963650;28;20216;-93
2022/10/12 17:03:12;;;;;;;9.03;4.70;;;19.50;56.40;;;;;;4977053;28;20206;-94
2022/10/12 17:05:40;;;;;;;11.00;5.10;;;19.60;56.20;;;;;;4978490;28;20238;-94
2022/10/12 17:10:58;;;;;;;14.70;5.43;;;19.50;56.40;;;;;;4979182;28;20202;-93
2022/10/12 17:18:58;;;;;;;6.97;4.20;;;19.40;56.50;;;;;;5008017;28;20217;-93
2022/10/12 17:21:40;;;;;;;11.23;4.20;;;19.30;56.60;;;;;;5007164;28;20197;-96
2022/10/12 17:24:14;;;;;;;9.90;4.13;;;19.30;56.90;;;;;;5001677;28;20206;-96
2022/10/12 17:30:20;;;;;;;9.53;4.17;;;19.20;57.00;;;;;;4982820;28;20206;-96
2022/10/12 17:32:57;;;;;;;13.63;6.30;;;19.20;57.00;;;;;;4984813;28;20231;-91
2022/10/12 17:35:33;;;;;;;8.53;4.63;;;19.10;56.90;;;;;;5001559;28;20643;-96
2022/10/12 17:38:05;;;;;;;7.90;4.20;;;19.10;57.00;;;;;;5004200;28;20213;-96
2022/10/12 17:43:07;;;;;;;13.53;5.87;;;19.00;57.00;;;;;;5106972;23;20244;-92
2022/10/12 17:46:12;;;;;;;11.57;5.37;;;18.90;57.20;;;;;;5026051;23;20238;-96
2022/10/12 19:27:26;;;;;;;22.67;15.27;;;14.00;62.30;;;;;;5063604;28;21087;-91
2022/10/12 19:29:58;;;;;;;22.03;14.87;;;15.30;67.80;;;;;;5047143;28;20292;-90
2022/10/12 19:32:26;;;;;;;24.83;15.17;;;15.50;66.30;;;;;;5046679;28;20665;-90
2022/10/12 19:34:53;;;;;;;21.33;14.00;;;15.80;65.60;;;;;;5044882;27;20225;-90
2022/10/12 19:37:22;;;;;;;20.37;14.13;;;15.90;65.10;;;;;;5046494;27;20652;-91
2022/10/12 19:40:01;;;;;;;22.23;14.03;;;16.10;65.10;;;;;;5055147;28;20205;-92
2022/10/12 19:42:38;;;;;;;18.27;12.27;;;16.20;64.80;;;;;;5048999;27;20196;-93
2022/10/12 19:45:06;;;;;;;22.97;13.93;;;16.30;64.60;;;;;;5051917;28;20279;-93
2022/10/12 19:47:34;;;;;;;24.53;13.90;;;16.30;64.00;;;;;;5045657;27;20607;-89
2022/10/12 19:50:01;;;;;;;19.73;12.63;;;16.40;63.70;;;;;;5043583;28;20643;-90
2022/10/12 19:52:30;;;;;;;22.33;13.27;;;16.50;63.60;;;;;;5045746;28;20212;-89
2022/10/12 19:54:57;;;;;;;22.93;13.53;;;16.50;63.60;;;;;;5046822;28;20276;-90
2022/10/12 19:57:27;;;;;;;21.97;12.53;;;16.60;63.40;;;;;;5047753;27;20203;-90
2022/10/12 19:59:58;;;;;;;22.93;13.17;;;16.60;63.50;;;;;;5048778;27;20206;-92
2022/10/12 20:02:25;;;;;;;23.43;14.10;;;16.60;63.40;;;;;;5061601;27;20214;-92
2022/10/12 20:04:53;;;;;;;21.60;12.83;;;16.70;63.20;;;;;;5059473;28;20208;-90
2022/10/12 20:07:21;;;;;;;21.00;12.50;;;16.70;63.30;;;;;;5048666;28;20193;-92
2022/10/12 20:09:51;;;;;;;18.73;12.27;;;16.70;63.20;;;;;;5048766;28;20251;-90
2022/10/12 20:12:19;;;;;;;17.57;12.13;;;16.70;63.20;;;;;;5047745;27;20715;-91
2022/10/12 20:14:48;;;;;;;17.53;11.07;;;16.80;63.20;;;;;;5054300;28;20212;-90
2022/10/12 20:17:20;;;;;;;18.73;11.77;;;16.80;63.00;;;;;;5040740;28;20233;-90
2022/10/12 20:19:49;;;;;;;12.27;10.80;;;16.80;63.10;;;;;;5028264;28;20246;-90
2022/10/12 20:22:21;;;;;;;18.10;11.77;;;16.80;62.80;;;;;;5032445;28;20234;-91
2022/10/12 20:24:49;;;;;;;19.57;11.77;;;16.90;63.10;;;;;;5033054;28;20206;-91
2022/10/12 20:27:17;;;;;;;20.43;12.83;;;16.90;62.90;;;;;;5024254;28;20232;-90
2022/10/12 20:29:45;;;;;;;15.00;11.27;;;16.90;63.00;;;;;;5019821;28;20206;-91
2022/10/12 20:32:12;;;;;;;14.97;10.43;;;16.90;63.00;;;;;;5016729;28;20673;-91
2022/10/12 20:34:59;;;;;;;15.77;9.63;;;16.90;63.00;;;;;;5018420;28;20203;-92
2022/10/12 20:37:28;;;;;;;20.70;10.70;;;16.90;63.40;;;;;;5019807;28;20190;-92
2022/10/12 20:39:56;;;;;;;13.70;9.57;;;16.90;62.90;;;;;;5021847;28;20204;-91
2022/10/12 20:42:28;;;;;;;15.20;9.77;;;16.90;62.90;;;;;;5018036;28;20226;-91
2022/10/12 20:44:55;;;;;;;17.90;9.30;;;17.00;63.10;;;;;;5017540;28;20224;-91
2022/10/12 20:47:23;;;;;;;13.03;8.23;;;17.00;62.80;;;;;;5018623;28;20208;-91
2022/10/12 20:49:51;;;;;;;13.07;8.77;;;16.90;63.00;;;;;;5017656;28;20207;-91
2022/10/12 20:52:21;;;;;;;13.53;8.17;;;17.00;63.00;;;;;;5018046;28;20211;-91
2022/10/12 20:54:52;;;;;;;12.13;7.97;;;17.00;63.30;;;;;;5011966;28;20653;-91
2022/10/12 20:57:20;;;;;;;11.60;6.87;;;17.00;63.50;;;;;;5011637;28;20208;-91
2022/10/12 20:59:49;;;;;;;13.57;8.43;;;17.00;63.40;;;;;;5024952;28;20244;-91
2022/10/12 21:02:23;;;;;;;14.60;8.37;;;17.00;63.50;;;;;;5023677;28;20259;-91
2022/10/12 21:04:51;;;;;;;10.87;6.50;;;17.00;63.70;;;;;;5018143;28;20333;-92
2022/10/12 21:07:23;;;;;;;11.13;7.17;;;17.00;63.50;;;;;;5018486;28;20219;-91
2022/10/12 21:09:51;;;;;;;11.47;7.17;;;17.00;63.80;;;;;;5018502;28;20767;-91
2022/10/12 21:12:19;;;;;;;11.90;7.60;;;17.00;63.60;;;;;;5017208;28;20247;-91
2022/10/12 21:14:55;;;;;;;11.23;7.40;;;17.00;63.70;;;;;;5017245;28;20225;-91
2022/10/12 21:17:23;;;;;;;13.53;7.63;;;17.10;63.70;;;;;;5016827;28;20319;-91
2022/10/12 21:19:52;;;;;;;11.27;7.50;;;17.10;63.80;;;;;;5017093;28;20200;-91
2022/10/12 21:22:27;;;;;;;12.70;7.50;;;17.10;63.80;;;;;;5013911;28;20213;-91
2022/10/12 21:25:00;;;;;;;13.97;7.30;;;17.10;64.10;;;;;;5002681;28;20210;-91
2022/10/12 21:27:30;;;;;;;11.03;6.73;;;17.20;64.20;;;;;;5016191;28;20200;-91
2022/10/12 21:29:57;;;;;;;10.37;6.40;;;17.10;64.10;;;;;;5016625;28;20199;-91
2022/10/12 21:32:26;;;;;;;12.07;6.87;;;17.10;64.00;;;;;;4998533;28;20620;-90
2022/10/12 21:35:00;;;;;;;8.40;5.97;;;17.10;64.10;;;;;;5013144;28;20212;-91
2022/10/12 21:37:33;;;;;;;14.67;7.33;;;17.20;64.50;;;;;;5016506;28;20256;-91
2022/10/12 21:40:01;;;;;;;12.97;7.23;;;17.20;64.50;;;;;;5015348;28;20671;-91
2022/10/12 21:42:33;;;;;;;12.50;7.57;;;17.30;65.10;;;;;;5015460;28;20704;-91
2022/10/12 21:45:02;;;;;;;12.47;6.53;;;17.20;64.50;;;;;;5016047;28;20213;-92
2022/10/12 21:47:30;;;;;;;14.03;7.40;;;17.30;64.40;;;;;;4996774;28;20213;-91
2022/10/12 21:49:58;;;;;;;10.30;6.50;;;17.30;64.40;;;;;;4995828;28;20212;-91
2022/10/12 21:52:26;;;;;;;15.50;6.63;;;17.30;64.30;;;;;;4999504;28;20260;-91
2022/10/12 21:54:54;;;;;;;11.17;6.87;;;17.30;64.30;;;;;;5025984;28;20231;-90
2022/10/12 21:57:22;;;;;;;12.83;7.57;;;17.30;64.40;;;;;;5022299;28;20264;-91
2022/10/12 21:59:49;;;;;;;10.33;7.10;;;17.40;64.50;;;;;;5019546;28;20608;-91
2022/10/12 22:02:17;;;;;;;9.00;7.00;;;17.30;64.30;;;;;;5016346;28;20642;-91
2022/10/12 22:04:48;;;;;;;10.83;5.83;;;17.40;64.40;;;;;;5016904;28;20208;-91
2022/10/12 22:07:16;;;;;;;19.60;9.53;;;17.40;65.50;;;;;;5018962;28;20211;-91
2022/10/12 22:09:45;;;;;;;11.03;6.23;;;17.40;64.50;;;;;;5017874;28;20871;-90
2022/10/12 22:12:16;;;;;;;11.93;7.00;;;17.40;64.50;;;;;;5040171;28;20576;-91
2022/10/12 22:14:48;;;;;;;16.10;7.90;;;17.30;64.60;;;;;;5017091;28;20733;-92
2022/10/12 22:17:16;;;;;;;10.73;6.60;;;17.40;65.00;;;;;;5011336;28;20293;-91
2022/10/12 22:19:48;;;;;;;14.00;8.03;;;17.40;64.50;;;;;;5015983;28;20262;-91
2022/10/12 22:22:18;;;;;;;11.10;7.43;;;17.40;65.00;;;;;;4997868;28;20206;-91
2022/10/12 22:24:47;;;;;;;14.63;8.67;;;17.40;64.90;;;;;;4997032;28;20213;-91
2022/10/12 22:27:16;;;;;;;10.03;6.80;;;17.40;64.90;;;;;;5081017;28;20210;-91
2022/10/12 22:29:51;;;;;;;10.20;7.03;;;17.40;65.00;;;;;;5016247;28;20205;-91
2022/10/12 22:32:25;;;;;;;12.90;7.20;;;17.40;65.30;;;;;;5018240;28;20207;-91
2022/10/12 22:34:58;;;;;;;9.83;7.07;;;17.40;65.50;;;;;;5023629;28;20206;-91
2022/10/12 22:37:29;;;;;;;11.20;7.47;;;17.40;65.50;;;;;;5005200;28;20642;-91
2022/10/12 22:39:56;;;;;;;11.77;7.80;;;17.40;65.20;;;;;;5017556;28;20234;-91
2022/10/12 22:42:29;;;;;;;14.33;6.83;;;17.40;65.30;;;;;;5019181;28;20185;-91
2022/10/12 22:44:57;;;;;;;13.20;7.20;;;17.40;65.60;;;;;;5019538;28;20217;-92
2022/10/12 22:47:26;;;;;;;14.73;8.17;;;17.40;65.60;;;;;;5019133;28;20212;-92
2022/10/12 22:49:54;;;;;;;11.30;7.20;;;17.40;65.70;;;;;;5014861;28;20569;-91
2022/10/12 22:52:24;;;;;;;12.23;6.83;;;17.30;65.60;;;;;;5025247;28;20209;-91
2022/10/12 22:54:53;;;;;;;14.70;7.93;;;17.40;66.10;;;;;;5021149;28;20209;-90
2022/10/12 22:57:20;;;;;;;15.37;7.97;;;17.40;66.00;;;;;;5003192;28;20227;-91
2022/10/12 22:59:55;;;;;;;17.53;8.50;;;17.40;65.80;;;;;;5013290;28;20253;-91
2022/10/12 23:02:29;;;;;;;13.27;8.40;;;17.40;66.70;;;;;;5008325;28;20200;-92
2022/10/12 23:04:59;;;;;;;17.43;8.97;;;17.40;66.50;;;;;;5019214;28;20210;-92
2022/10/12 23:07:30;;;;;;;18.13;8.40;;;17.40;66.40;;;;;;5019083;28;20240;-91
2022/10/12 23:10:04;;;;;;;12.07;7.23;;;17.40;66.80;;;;;;5024342;28;20204;-91
2022/10/12 23:12:31;;;;;;;14.10;7.77;;;17.50;67.20;;;;;;5023639;27;20200;-92
2022/10/12 23:15:01;;;;;;;10.43;7.07;;;17.50;66.60;;;;;;5022547;27;20237;-92
2022/10/12 23:17:30;;;;;;;15.00;7.90;;;17.40;67.00;;;;;;5019142;28;20520;-89
2022/10/12 23:19:57;;;;;;;12.90;7.87;;;17.50;67.10;;;;;;5023842;28;20213;-91
2022/10/12 23:22:25;;;;;;;16.07;8.27;;;17.50;67.20;;;;;;5016568;28;20206;-91
2022/10/12 23:24:53;;;;;;;12.77;7.27;;;17.50;67.20;;;;;;5026730;28;20203;-91
2022/10/12 23:27:26;;;;;;;11.10;7.40;;;17.50;67.40;;;;;;5007096;28;20206;-90
2022/10/12 23:29:53;;;;;;;9.67;7.17;;;17.50;67.70;;;;;;5009879;28;20209;-91
2022/10/12 23:32:29;;;;;;;12.97;7.47;;;17.50;67.50;;;;;;5001970;28;20319;-90
2022/10/12 23:34:56;;;;;;;10.97;7.00;;;17.50;68.00;;;;;;5014836;28;20204;-91
2022/10/12 23:37:26;;;;;;;20.50;9.47;;;17.50;67.50;;;;;;5011717;28;20225;-90
2022/10/12 23:40:01;;;;;;;15.13;7.63;;;17.50;67.70;;;;;;5013643;28;20328;-90
2022/10/12 23:42:29;;;;;;;13.13;8.00;;;17.50;68.00;;;;;;5012626;28;20232;-91
2022/10/12 23:44:57;;;;;;;12.53;8.03;;;17.50;67.70;;;;;;5014978;28;20204;-91
2022/10/12 23:47:37;;;;;;;20.53;9.87;;;17.50;67.80;;;;;;5019847;28;20209;-91
2022/10/12 23:50:06;;;;;;;15.63;7.93;;;17.50;68.40;;;;;;5016981;28;20220;-91
2022/10/12 23:52:38;;;;;;;16.67;9.10;;;17.50;68.00;;;;;;4996677;28;20225;-91
2022/10/12 23:55:08;;;;;;;13.23;7.90;;;17.50;68.00;;;;;;5019949;28;20206;-91
2022/10/12 23:57:36;;;;;;;16.37;7.53;;;17.50;68.10;;;;;;5018331;28;20231;-91
